createdAt,value
2022-07-27T00:01:16.408Z,38.22
2022-07-27T00:03:45.930Z,38.22
2022-07-27T00:06:14.671Z,38.13
2022-07-27T00:08:42.654Z,38.31
2022-07-27T00:11:12.363Z,38.27
2022-07-27T00:13:40.804Z,38.30
2022-07-27T00:16:09.074Z,38.25
2022-07-27T00:18:37.099Z,38.02
2022-07-27T00:21:05.166Z,38.34
2022-07-27T00:23:34.157Z,38.40
2022-07-27T00:26:02.128Z,37.94
2022-07-27T00:28:32.365Z,38.30
2022-07-27T00:31:00.413Z,37.90
2022-07-27T00:33:28.477Z,38.33
2022-07-27T00:35:56.410Z,37.82
2022-07-27T00:38:25.173Z,38.46
2022-07-27T00:40:53.796Z,38.42
2022-07-27T00:43:21.789Z,38.03
2022-07-27T00:45:51.294Z,37.90
2022-07-27T00:48:19.296Z,38.38
2022-07-27T00:50:48.077Z,38.35
2022-07-27T00:53:16.872Z,37.89
2022-07-27T00:55:45.910Z,37.82
2022-07-27T00:58:13.890Z,38.44
2022-07-27T01:00:41.978Z,38.24
2022-07-27T01:03:11.485Z,38.05
2022-07-27T01:05:42.986Z,37.85
2022-07-27T01:08:14.231Z,37.96
2022-07-27T01:10:43.376Z,38.42
2022-07-27T01:13:12.558Z,38.29
2022-07-27T01:15:42.239Z,37.90
2022-07-27T01:18:14.470Z,37.89
2022-07-27T01:20:43.053Z,38.36
2022-07-27T01:23:12.444Z,38.17
2022-07-27T01:25:43.140Z,38.46
2022-07-27T01:28:11.231Z,38.20
2022-07-27T01:30:39.268Z,38.51
2022-07-27T01:33:08.734Z,38.23
2022-07-27T01:35:37.754Z,38.42
2022-07-27T01:38:06.219Z,38.16
2022-07-27T01:40:36.856Z,37.95
2022-07-27T01:43:05.228Z,38.38
2022-07-27T01:45:33.297Z,38.03
2022-07-27T01:48:01.301Z,38.15
2022-07-27T01:50:29.875Z,38.39
2022-07-27T01:52:57.896Z,38.14
2022-07-27T01:55:25.944Z,38.06
2022-07-27T01:57:55.267Z,38.28
2022-07-27T02:00:23.253Z,38.31
2022-07-27T02:02:51.348Z,38.50
2022-07-27T02:05:19.377Z,38.10
2022-07-27T02:07:47.410Z,38.09
2022-07-27T02:10:15.402Z,38.42
2022-07-27T02:12:42.817Z,38.58
2022-07-27T02:15:14.849Z,38.27
2022-07-27T02:17:45.295Z,38.16
2022-07-27T02:20:16.032Z,38.62
2022-07-27T02:22:44.779Z,38.61
2022-07-27T02:25:14.013Z,38.52
2022-07-27T02:27:43.026Z,38.37
2022-07-27T02:30:14.007Z,38.47
2022-07-27T02:32:44.105Z,38.56
2022-07-27T02:35:18.810Z,38.86
2022-07-27T02:37:48.282Z,38.60
2022-07-27T02:40:17.266Z,38.63
2022-07-27T02:42:45.858Z,38.66
2022-07-27T02:45:15.609Z,38.94
2022-07-27T02:47:43.762Z,38.94
2022-07-27T02:50:12.145Z,39.02
2022-07-27T02:52:40.420Z,38.54
2022-07-27T02:55:09.758Z,38.76
2022-07-27T02:57:41.308Z,38.73
2022-07-27T03:00:12.565Z,38.70
2022-07-27T03:02:42.235Z,38.68
2022-07-27T03:05:12.619Z,39.18
2022-07-27T03:07:40.641Z,39.21
2022-07-27T03:10:09.701Z,38.79
2022-07-27T03:12:37.722Z,38.86
2022-07-27T03:15:06.833Z,39.33
2022-07-27T03:17:34.842Z,38.83
2022-07-27T03:20:04.326Z,38.90
2022-07-27T03:22:33.488Z,38.83
2022-07-27T03:25:01.651Z,39.30
2022-07-27T03:27:30.212Z,39.48
2022-07-27T03:29:58.413Z,39.26
2022-07-27T03:32:26.595Z,39.09
2022-07-27T03:34:54.582Z,39.07
2022-07-27T03:37:23.957Z,39.37
2022-07-27T03:39:51.920Z,39.54
2022-07-27T03:42:19.953Z,39.11
2022-07-27T03:44:47.955Z,39.31
2022-07-27T03:47:16.001Z,39.61
2022-07-27T03:49:43.946Z,39.40
2022-07-27T03:52:17.235Z,39.46
2022-07-27T03:54:47.401Z,39.40
2022-07-27T03:57:15.634Z,39.47
2022-07-27T03:59:43.675Z,39.40
2022-07-27T04:02:11.714Z,39.56
2022-07-27T04:04:39.850Z,39.72
2022-07-27T04:07:07.893Z,39.39
2022-07-27T04:09:37.673Z,39.83
2022-07-27T04:12:09.314Z,39.41
2022-07-27T04:14:37.311Z,39.50
2022-07-27T04:17:05.727Z,39.94
2022-07-27T04:19:33.726Z,39.65
2022-07-27T04:22:01.760Z,39.43
2022-07-27T04:24:29.738Z,39.64
2022-07-27T04:26:57.766Z,39.77
2022-07-27T04:29:27.180Z,39.98
2022-07-27T04:31:55.229Z,39.71
2022-07-27T04:34:23.285Z,40.04
2022-07-27T04:36:51.430Z,39.63
2022-07-27T04:39:19.474Z,40.20
2022-07-27T04:41:47.584Z,39.72
2022-07-27T04:44:15.572Z,40.17
2022-07-27T04:46:45.027Z,40.04
2022-07-27T04:49:13.442Z,40.00
2022-07-27T04:51:43.988Z,40.04
2022-07-27T04:54:12.350Z,39.95
2022-07-27T04:56:40.516Z,40.31
2022-07-27T04:59:08.769Z,40.15
2022-07-27T05:01:37.091Z,40.02
2022-07-27T05:04:06.789Z,40.18
2022-07-27T05:06:34.842Z,40.08
2022-07-27T05:09:03.303Z,40.66
2022-07-27T05:11:31.473Z,40.75
2022-07-27T05:13:59.490Z,40.53
2022-07-27T05:16:29.132Z,40.37
2022-07-27T05:18:57.560Z,40.35
2022-07-27T05:21:27.352Z,40.68
2022-07-27T05:23:55.747Z,40.72
2022-07-27T05:26:24.046Z,40.57
2022-07-27T05:28:52.019Z,40.88
2022-07-27T05:31:20.069Z,40.98
2022-07-27T05:33:49.917Z,40.74
2022-07-27T05:36:19.289Z,40.69
2022-07-27T05:38:48.656Z,41.13
2022-07-27T05:41:16.760Z,40.71
2022-07-27T05:43:44.705Z,40.79
2022-07-27T05:46:12.768Z,41.28
2022-07-27T05:48:40.812Z,41.38
2022-07-27T05:51:09.520Z,41.32
2022-07-27T05:53:37.606Z,41.22
2022-07-27T05:56:08.114Z,41.71
2022-07-27T05:58:36.196Z,41.54
2022-07-27T06:01:04.708Z,41.96
2022-07-27T06:03:32.807Z,42.21
2022-07-27T06:06:26.724Z,42.04
2022-07-27T06:08:55.263Z,42.08
2022-07-27T06:11:24.686Z,42.34
2022-07-27T06:13:52.942Z,42.49
2022-07-27T06:16:20.990Z,42.66
2022-07-27T06:18:49.006Z,42.78
2022-07-27T06:21:17.111Z,42.40
2022-07-27T06:23:48.314Z,42.71
2022-07-27T06:26:16.359Z,42.54
2022-07-27T06:28:45.700Z,42.77
2022-07-27T06:31:13.723Z,42.47
2022-07-27T06:33:42.018Z,42.53
2022-07-27T06:36:13.502Z,42.65
2022-07-27T06:38:41.466Z,42.46
2022-07-27T06:41:09.446Z,42.43
2022-07-27T06:43:37.412Z,42.18
2022-07-27T06:46:07.591Z,42.27
2022-07-27T06:48:35.815Z,42.30
2022-07-27T06:51:03.925Z,41.92
2022-07-27T06:53:36.157Z,42.15
2022-07-27T06:56:05.945Z,42.16
2022-07-27T06:58:34.102Z,42.19
2022-07-27T07:01:03.856Z,41.88
2022-07-27T07:03:33.329Z,41.40
2022-07-27T07:06:01.381Z,41.37
2022-07-27T07:08:29.361Z,41.15
2022-07-27T07:10:57.405Z,41.24
2022-07-27T07:13:25.357Z,41.43
2022-07-27T07:15:53.353Z,41.34
2022-07-27T07:18:21.355Z,41.57
2022-07-27T07:20:50.859Z,41.41
2022-07-27T07:23:18.829Z,41.64
2022-07-27T07:25:47.339Z,41.71
2022-07-27T07:28:15.309Z,41.87
2022-07-27T07:30:44.304Z,41.87
2022-07-27T07:33:12.297Z,42.18
2022-07-27T07:36:11.949Z,41.99
2022-07-27T07:38:31.266Z,41.92
2022-07-27T07:40:59.417Z,41.96
2022-07-27T07:43:28.840Z,41.96
2022-07-27T07:45:57.420Z,41.59
2022-07-27T07:48:25.408Z,42.11
2022-07-27T07:50:54.170Z,41.70
2022-07-27T07:53:22.820Z,41.64
2022-07-27T07:55:52.465Z,41.68
2022-07-27T07:58:21.174Z,41.76
2022-07-27T08:00:49.237Z,42.00
2022-07-27T08:03:17.461Z,41.89
2022-07-27T08:05:45.922Z,41.55
2022-07-27T08:08:13.976Z,41.69
2022-07-27T08:10:42.269Z,41.21
2022-07-27T08:13:11.626Z,41.03
2022-07-27T08:15:39.624Z,41.26
2022-07-27T08:18:09.585Z,40.71
2022-07-27T08:20:37.612Z,41.10
2022-07-27T08:23:05.800Z,41.03
2022-07-27T08:25:34.407Z,41.01
2022-07-27T08:28:02.855Z,40.91
2022-07-27T08:30:33.861Z,40.75
2022-07-27T08:33:04.229Z,40.85
2022-07-27T08:35:33.990Z,40.68
2022-07-27T08:38:04.258Z,40.99
2022-07-27T08:40:48.090Z,40.73
2022-07-27T08:43:23.821Z,40.41
2022-07-27T08:45:58.180Z,40.26
2022-07-27T08:48:27.106Z,40.49
2022-07-27T08:50:56.022Z,40.17
2022-07-27T08:53:24.978Z,40.09
2022-07-27T08:55:52.987Z,40.40
2022-07-27T08:58:21.081Z,39.88
2022-07-27T09:00:51.054Z,39.91
2022-07-27T09:03:22.779Z,40.07
2022-07-27T09:05:53.056Z,40.02
2022-07-27T09:08:24.426Z,39.77
2022-07-27T09:10:54.495Z,39.64
2022-07-27T09:13:25.492Z,39.66
2022-07-27T09:18:44.673Z,38.93
2022-07-27T09:21:15.839Z,38.65
2022-07-27T09:23:45.951Z,38.74
2022-07-27T09:26:31.685Z,38.48
2022-07-27T09:29:01.649Z,38.70
2022-07-27T09:31:30.425Z,38.59
2022-07-27T09:34:01.366Z,38.55
2022-07-27T09:36:30.856Z,38.10
2022-07-27T09:39:03.377Z,38.32
2022-07-27T09:41:42.356Z,37.77
2022-07-27T09:46:59.086Z,37.54
2022-07-27T09:49:30.989Z,37.90
2022-07-27T09:52:02.207Z,37.77
2022-07-27T09:54:43.525Z,37.55
2022-07-27T09:57:11.783Z,37.32
2022-07-27T09:59:39.822Z,37.35
2022-07-27T10:02:08.431Z,37.69
2022-07-27T10:04:37.907Z,37.35
2022-07-27T10:07:10.649Z,37.47
2022-07-27T10:09:41.145Z,37.35
2022-07-27T10:12:10.135Z,37.55
2022-07-27T10:14:38.134Z,36.97
2022-07-27T10:17:07.893Z,37.03
2022-07-27T10:19:45.278Z,36.69
2022-07-27T10:22:13.919Z,36.64
2022-07-27T10:24:42.219Z,36.65
2022-07-27T10:27:22.075Z,36.61
2022-07-27T10:29:51.422Z,36.45
2022-07-27T10:32:27.186Z,36.23
2022-07-27T10:34:56.576Z,36.30
2022-07-27T10:37:28.887Z,36.15
2022-07-27T10:40:12.446Z,36.54
2022-07-27T10:42:40.899Z,36.27
2022-07-27T10:45:11.349Z,36.34
2022-07-27T10:47:42.190Z,36.79
2022-07-27T10:50:33.103Z,36.45
2022-07-27T10:53:11.348Z,36.62
2022-07-27T10:55:57.406Z,36.41
2022-07-27T10:58:58.626Z,36.89
2022-07-27T11:01:26.719Z,36.17
2022-07-27T11:03:56.041Z,36.56
2022-07-27T11:07:04.689Z,35.95
2022-07-27T11:12:05.411Z,35.83
2022-07-27T11:14:44.249Z,35.77
2022-07-27T11:20:02.844Z,35.79
2022-07-27T11:25:21.723Z,35.74
2022-07-27T11:27:50.430Z,35.90
2022-07-27T11:30:27.258Z,35.65
2022-07-27T11:32:56.418Z,35.93
2022-07-27T11:35:25.687Z,35.52
2022-07-27T11:38:03.149Z,35.34
2022-07-27T11:41:12.797Z,35.67
2022-07-27T11:43:37.617Z,35.78
2022-07-27T11:46:16.403Z,35.77
2022-07-27T11:51:38.452Z,35.79
2022-07-27T11:54:10.624Z,35.55
2022-07-27T11:56:43.355Z,35.45
2022-07-27T11:59:14.862Z,35.68
2022-07-27T12:01:46.026Z,35.75
2022-07-27T12:04:18.933Z,36.01
2022-07-27T12:06:50.429Z,35.81
2022-07-27T12:09:19.912Z,35.50
2022-07-27T12:11:54.656Z,35.56
2022-07-27T12:14:35.155Z,35.58
2022-07-27T12:17:31.997Z,35.68
2022-07-27T12:20:02.465Z,35.67
2022-07-27T12:22:33.496Z,35.96
2022-07-27T12:25:16.413Z,35.84
2022-07-27T12:27:56.678Z,35.93
2022-07-27T12:30:33.362Z,35.57
2022-07-27T12:33:01.874Z,35.70
2022-07-27T12:35:37.920Z,35.56
2022-07-27T12:38:09.256Z,35.64
2022-07-27T12:40:47.667Z,35.40
2022-07-27T12:43:19.298Z,35.92
2022-07-27T12:45:48.948Z,35.82
2022-07-27T12:48:20.775Z,35.41
2022-07-27T12:50:57.801Z,35.71
2022-07-27T12:53:25.849Z,35.91
2022-07-27T12:55:56.326Z,35.42
2022-07-27T12:58:24.614Z,35.79
2022-07-27T13:00:53.092Z,35.89
2022-07-27T13:03:21.195Z,35.70
2022-07-27T13:05:49.629Z,36.12
2022-07-27T13:08:17.706Z,36.08
2022-07-27T13:10:45.935Z,35.84
2022-07-27T13:13:15.289Z,35.94
2022-07-27T13:15:43.313Z,36.35
2022-07-27T13:18:11.287Z,36.23
2022-07-27T13:20:39.269Z,36.07
2022-07-27T13:23:08.898Z,35.84
2022-07-27T13:25:42.767Z,35.93
2022-07-27T13:28:11.425Z,36.22
2022-07-27T13:30:40.921Z,36.29
2022-07-27T13:33:09.173Z,36.11
2022-07-27T13:35:37.202Z,36.05
2022-07-27T13:38:05.249Z,36.56
2022-07-27T13:40:33.328Z,36.67
2022-07-27T13:43:01.251Z,36.17
2022-07-27T13:45:29.342Z,36.54
2022-07-27T13:48:13.274Z,36.13
2022-07-27T13:50:41.513Z,36.22
2022-07-27T13:53:09.506Z,35.81
2022-07-27T13:55:43.706Z,36.17
2022-07-27T13:58:12.794Z,36.40
2022-07-27T14:00:41.134Z,35.91
2022-07-27T14:03:09.635Z,35.81
2022-07-27T14:05:43.575Z,36.00
2022-07-27T14:08:18.338Z,36.53
2022-07-27T14:10:46.502Z,36.34
2022-07-27T14:13:16.777Z,36.11
2022-07-27T14:15:53.209Z,36.42
2022-07-27T14:18:27.252Z,36.26
2022-07-27T14:20:58.306Z,36.38
2022-07-27T14:23:28.273Z,36.38
2022-07-27T14:25:57.435Z,36.11
2022-07-27T14:28:26.256Z,36.21
2022-07-27T14:30:54.765Z,36.45
2022-07-27T14:33:23.577Z,36.26
2022-07-27T14:35:52.313Z,36.13
2022-07-27T14:38:28.341Z,36.19
2022-07-27T14:41:00.838Z,35.98
2022-07-27T14:43:29.455Z,36.43
2022-07-27T14:45:59.342Z,35.82
2022-07-27T14:48:48.864Z,35.92
2022-07-27T14:51:16.230Z,36.13
2022-07-27T14:53:46.155Z,36.11
2022-07-27T14:56:14.286Z,36.10
2022-07-27T14:58:42.305Z,35.82
2022-07-27T15:01:10.402Z,36.13
2022-07-27T15:03:38.410Z,35.82
2022-07-27T15:06:06.542Z,36.01
2022-07-27T15:08:34.572Z,36.09
2022-07-27T15:11:04.137Z,36.11
2022-07-27T15:13:32.262Z,36.21
2022-07-27T15:16:00.328Z,35.39
2022-07-27T15:18:28.354Z,35.47
2022-07-27T15:20:56.389Z,35.75
2022-07-27T15:23:24.518Z,35.53
2022-07-27T15:25:52.699Z,36.08
2022-07-27T15:28:22.162Z,35.85
2022-07-27T15:30:50.136Z,35.67
2022-07-27T15:33:18.190Z,35.32
2022-07-27T15:35:46.166Z,35.62
2022-07-27T15:38:14.190Z,35.81
2022-07-27T15:40:42.510Z,35.40
2022-07-27T15:43:13.358Z,35.21
2022-07-27T15:45:45.559Z,35.56
2022-07-27T15:48:13.927Z,35.51
2022-07-27T15:50:43.492Z,35.19
2022-07-27T15:53:13.182Z,35.47
2022-07-27T15:55:41.567Z,35.46
2022-07-27T15:58:09.661Z,35.48
2022-07-27T16:00:41.017Z,35.49
2022-07-27T16:03:11.645Z,35.28
2022-07-27T16:05:41.071Z,34.92
2022-07-27T16:08:10.178Z,34.90
2022-07-27T16:10:38.591Z,34.83
2022-07-27T16:13:06.665Z,35.10
2022-07-27T16:15:52.600Z,34.88
2022-07-27T16:18:22.862Z,34.65
2022-07-27T16:20:50.964Z,35.15
2022-07-27T16:23:21.819Z,35.03
2022-07-27T16:26:04.105Z,35.10
2022-07-27T16:28:34.958Z,34.50
2022-07-27T16:31:03.762Z,34.71
2022-07-27T16:33:33.265Z,34.90
2022-07-27T16:36:01.300Z,34.40
2022-07-27T16:38:29.594Z,34.94
2022-07-27T16:40:57.550Z,34.71
2022-07-27T16:43:38.753Z,35.06
2022-07-27T16:46:08.332Z,34.57
2022-07-27T16:48:41.714Z,34.90
2022-07-27T16:51:12.697Z,34.36
2022-07-27T16:53:42.307Z,34.36
2022-07-27T16:56:10.885Z,34.35
2022-07-27T16:58:39.531Z,34.15
2022-07-27T17:01:08.523Z,34.59
2022-07-27T17:03:37.926Z,34.45
2022-07-27T17:06:07.264Z,34.67
2022-07-27T17:08:36.365Z,34.41
2022-07-27T17:11:06.135Z,34.97
2022-07-27T17:13:35.343Z,34.62
2022-07-27T17:16:03.778Z,35.11
2022-07-27T17:18:39.078Z,34.67
2022-07-27T17:21:12.582Z,35.00
2022-07-27T17:23:40.997Z,35.05
2022-07-27T17:26:09.731Z,35.19
2022-07-27T17:28:40.343Z,34.82
2022-07-27T17:31:10.831Z,35.15
2022-07-27T17:33:39.562Z,35.32
2022-07-27T17:36:14.716Z,34.85
2022-07-27T17:38:44.292Z,35.14
2022-07-27T17:41:12.416Z,34.79
2022-07-27T17:43:40.762Z,34.78
2022-07-27T17:46:09.934Z,35.21
2022-07-27T17:48:39.238Z,35.37
2022-07-27T17:51:10.585Z,35.54
2022-07-27T17:53:39.474Z,35.54
2022-07-27T17:56:08.415Z,35.33
2022-07-27T17:58:37.461Z,34.96
2022-07-27T18:01:06.267Z,35.05
2022-07-27T18:03:34.813Z,35.17
2022-07-27T18:06:03.243Z,35.21
2022-07-27T18:08:33.074Z,34.86
2022-07-27T18:11:01.041Z,34.88
2022-07-27T18:13:38.828Z,35.33
2022-07-27T18:16:09.175Z,35.24
2022-07-27T18:18:37.973Z,35.31
2022-07-27T18:21:06.438Z,35.43
2022-07-27T18:23:36.317Z,34.96
2022-07-27T18:26:04.537Z,35.35
2022-07-27T18:28:38.959Z,35.13
2022-07-27T18:31:08.388Z,35.56
2022-07-27T18:33:37.093Z,35.56
2022-07-27T18:36:06.502Z,35.40
2022-07-27T18:38:35.907Z,35.51
2022-07-27T18:41:04.003Z,35.27
2022-07-27T18:43:32.149Z,35.33
2022-07-27T18:46:00.201Z,35.58
2022-07-27T18:48:28.834Z,35.71
2022-07-27T18:50:57.271Z,35.43
2022-07-27T18:53:25.470Z,35.41
2022-07-27T18:55:56.783Z,35.85
2022-07-27T18:58:25.604Z,36.03
2022-07-27T19:00:54.824Z,35.98
2022-07-27T19:03:23.942Z,35.96
2022-07-27T19:05:53.107Z,35.74
2022-07-27T19:08:21.380Z,36.16
2022-07-27T19:10:49.372Z,35.96
2022-07-27T19:13:18.816Z,36.10
2022-07-27T19:15:46.810Z,36.22
2022-07-27T19:18:14.752Z,36.22
2022-07-27T19:20:42.765Z,36.14
2022-07-27T19:23:12.266Z,36.33
2022-07-27T19:25:40.337Z,36.57
2022-07-27T19:28:08.297Z,36.26
2022-07-27T19:30:39.273Z,36.80
2022-07-27T19:33:07.358Z,36.33
2022-07-27T19:35:35.418Z,36.22
2022-07-27T19:38:03.594Z,36.25
2022-07-27T19:40:46.961Z,36.66
2022-07-27T19:43:15.883Z,36.72
2022-07-27T19:45:45.340Z,36.80
2022-07-27T19:48:13.377Z,36.48
2022-07-27T19:50:41.956Z,36.88
2022-07-27T19:53:10.084Z,36.41
2022-07-27T19:55:38.325Z,36.53
2022-07-27T19:58:06.386Z,36.84
2022-07-27T20:00:34.514Z,36.58
2022-07-27T20:03:04.059Z,36.92
2022-07-27T20:05:32.132Z,36.64
2022-07-27T20:08:00.168Z,36.60
2022-07-27T20:10:28.130Z,37.02
2022-07-27T20:12:56.144Z,36.74
2022-07-27T20:15:24.190Z,36.90
2022-07-27T20:17:52.247Z,36.95
2022-07-27T20:20:21.614Z,37.11
2022-07-27T20:22:49.927Z,37.03
2022-07-27T20:25:18.624Z,36.93
2022-07-27T20:27:47.485Z,37.03
2022-07-27T20:30:17.303Z,37.10
2022-07-27T20:32:45.989Z,36.96
2022-07-27T20:35:13.974Z,37.15
2022-07-27T20:37:43.936Z,36.91
2022-07-27T20:40:12.772Z,37.35
2022-07-27T20:42:41.267Z,37.23
2022-07-27T20:45:12.892Z,36.96
2022-07-27T20:47:41.410Z,37.22
2022-07-27T20:50:11.648Z,36.96
2022-07-27T20:52:40.506Z,37.46
2022-07-27T20:55:11.318Z,37.61
2022-07-27T20:57:39.361Z,37.23
2022-07-27T21:00:09.818Z,37.26
2022-07-27T21:02:38.020Z,37.30
2022-07-27T21:05:07.141Z,37.70
2022-07-27T21:07:35.410Z,37.34
2022-07-27T21:10:03.810Z,37.71
2022-07-27T21:12:33.250Z,37.46
2022-07-27T21:15:01.213Z,37.44
2022-07-27T21:17:29.242Z,37.70
2022-07-27T21:19:57.351Z,37.55
2022-07-27T21:22:25.297Z,37.78
2022-07-27T21:24:53.438Z,37.55
2022-07-27T21:27:22.310Z,37.45
2022-07-27T21:29:51.754Z,37.81
2022-07-27T21:32:20.242Z,37.90
2022-07-27T21:34:48.243Z,37.93
2022-07-27T21:37:16.205Z,37.85
2022-07-27T21:39:45.798Z,37.64
2022-07-27T21:42:13.839Z,37.92
2022-07-27T21:44:41.889Z,38.04
2022-07-27T21:47:14.115Z,38.04
2022-07-27T21:49:43.211Z,38.06
2022-07-27T21:52:12.265Z,37.91
2022-07-27T21:54:40.963Z,38.20
2022-07-27T21:57:09.075Z,37.99
2022-07-27T21:59:37.142Z,38.23
2022-07-27T22:02:05.454Z,38.24
2022-07-27T22:04:35.526Z,38.02
2022-07-27T22:07:04.896Z,38.46
2022-07-27T22:09:32.968Z,38.07
2022-07-27T22:12:01.045Z,38.25
2022-07-27T22:14:28.982Z,38.56
2022-07-27T22:16:57.061Z,38.13
2022-07-27T22:19:25.044Z,38.06
2022-07-27T22:21:54.378Z,38.37
2022-07-27T22:24:22.380Z,38.37
2022-07-27T22:26:50.388Z,38.17
2022-07-27T22:29:18.398Z,38.31
2022-07-27T22:31:46.437Z,38.33
2022-07-27T22:34:14.850Z,38.18
2022-07-27T22:36:43.226Z,38.20
2022-07-27T22:39:12.907Z,38.26
2022-07-27T22:41:41.511Z,38.14
2022-07-27T22:44:09.552Z,38.32
2022-07-27T22:46:37.595Z,38.21
2022-07-27T22:49:05.775Z,38.25
2022-07-27T22:51:49.688Z,37.96
2022-07-27T22:54:22.581Z,37.96
2022-07-27T22:56:50.646Z,38.27
2022-07-27T22:59:18.681Z,38.12
2022-07-27T23:01:48.153Z,38.00
2022-07-27T23:04:17.947Z,38.14
2022-07-27T23:06:46.436Z,37.86
2022-07-27T23:09:16.127Z,37.66
2022-07-27T23:11:45.605Z,37.60
2022-07-27T23:14:14.406Z,37.74
2022-07-27T23:16:43.074Z,37.40
2022-07-27T23:19:11.556Z,37.60
2022-07-27T23:21:39.707Z,37.54
2022-07-27T23:24:11.158Z,37.11
2022-07-27T23:26:41.647Z,37.10
2022-07-27T23:29:11.002Z,37.28
2022-07-27T23:31:39.053Z,37.08
2022-07-27T23:34:07.401Z,37.04
2022-07-27T23:36:35.444Z,37.11
2022-07-27T23:39:03.624Z,36.88
2022-07-27T23:41:31.651Z,36.67
2022-07-27T23:43:59.598Z,36.61
2022-07-27T23:46:29.228Z,36.42
2022-07-27T23:48:57.240Z,36.57
2022-07-27T23:51:25.470Z,36.31
2022-07-27T23:53:53.433Z,36.08
2022-07-27T23:56:21.395Z,36.30
2022-07-27T23:58:49.378Z,36.03
